Time;durP1;ratioP1;P1;durP2;ratioP2;P2;SDS_P1;SDS_P2;PMS_P1;PMS_P2;Temp;Humidity;BMP_temperature;BMP_pressure;BME280_temperature;BME280_humidity;BME280_pressure;Samples;Min_cycle;Max_cycle;Signal;HPM_P1;HPM_P2
2021/08/24 00:00:37;;;;;;;3.42;2.30;;;;;;;19.81;62.43;100479.22;5299479;27;20080;-81
2021/08/24 00:03:04;;;;;;;4.00;1.95;;;;;;;19.96;61.70;100481.22;5299638;27;20124;-80
2021/08/24 00:05:34;;;;;;;6.55;2.20;;;;;;;20.02;61.15;100477.41;5299944;27;20077;-80
2021/08/24 00:08:02;;;;;;;3.83;1.80;;;;;;;20.11;61.14;100485.00;5300125;27;20064;-81
2021/08/24 00:10:52;;;;;;;5.57;2.30;;;;;;;20.11;61.66;100486.81;5299597;27;20155;-82
2021/08/24 00:13:22;;;;;;;5.53;3.08;;;;;;;19.90;61.82;100489.47;5299285;27;20066;-80
2021/08/24 00:15:50;;;;;;;14.50;4.22;;;;;;;19.82;62.06;100494.28;5299814;27;20398;-81
2021/08/24 00:18:18;;;;;;;14.73;5.03;;;;;;;19.79;62.54;100485.53;5299780;27;20411;-80
2021/08/24 00:20:47;;;;;;;9.25;4.72;;;;;;;19.84;62.56;100487.09;5299793;27;20079;-80
2021/08/24 00:23:23;;;;;;;7.37;3.67;;;;;;;19.63;62.90;100482.62;5299859;27;20429;-82
2021/08/24 00:25:53;;;;;;;5.32;2.53;;;;;;;19.47;63.42;100483.28;5299658;27;20399;-80
2021/08/24 00:28:45;;;;;;;5.70;2.42;;;;;;;19.31;63.87;100479.50;5300026;27;20442;-80
2021/08/24 00:31:18;;;;;;;4.05;1.98;;;;;;;19.33;63.74;100477.66;5299748;27;20076;-81
2021/08/24 00:33:48;;;;;;;3.45;2.00;;;;;;;19.44;63.52;100482.50;5299774;27;20440;-83
2021/08/24 00:36:17;;;;;;;6.22;2.58;;;;;;;19.45;63.29;100476.28;5299653;27;20053;-80
2021/08/24 00:38:44;;;;;;;4.05;2.10;;;;;;;19.61;62.50;100473.81;5299944;27;20532;-80
2021/08/24 00:41:12;;;;;;;8.60;1.87;;;;;;;19.64;62.09;100465.69;5299445;27;20143;-80
2021/08/24 00:43:41;;;;;;;3.33;2.15;;;;;;;19.41;62.49;100458.66;5299429;27;20091;-80
2021/08/24 00:46:30;;;;;;;4.43;2.10;;;;;;;19.21;63.25;100462.16;5299907;27;20056;-80
2021/08/24 00:49:03;;;;;;;4.75;1.75;;;;;;;19.24;63.17;100462.03;5299761;27;20056;-79
2021/08/24 00:51:39;;;;;;;3.62;1.80;;;;;;;19.20;nan;100455.09;5300323;27;20075;-81
2021/08/24 00:54:28;;;;;;;7.40;2.10;;;;;;;19.31;62.80;100457.31;5298483;27;37011;-80
2021/08/24 00:57:00;;;;;;;3.28;1.70;;;;;;;19.35;62.55;100461.56;5299526;27;20098;-80
2021/08/24 00:59:42;;;;;;;3.78;1.83;;;;;;;19.36;62.31;100455.34;5289086;27;20096;-80
2021/08/24 01:02:10;;;;;;;3.35;1.80;;;;;;;19.29;62.48;100460.94;5299136;27;20111;-81
2021/08/24 01:04:39;;;;;;;1.70;1.35;;;;;;;19.02;62.66;100473.53;5300236;27;20053;-80
2021/08/24 01:07:43;;;;;;;9.40;1.40;;;;;;;18.99;62.35;100468.31;5299717;27;20102;-82
2021/08/24 01:10:19;;;;;;;3.03;1.20;;;;;;;18.84;61.96;100466.28;5298908;27;20074;-81
2021/08/24 01:13:27;;;;;;;7.85;1.83;;;;;;;19.10;61.44;100467.91;5318881;26;20199;-82
2021/08/24 01:16:32;;;;;;;5.68;1.83;;;;;;;19.20;61.15;100469.25;5299666;27;20071;-81
2021/08/24 01:19:30;;;;;;;5.50;2.42;;;;;;;19.12;61.86;100478.50;5299065;27;20543;-81
2021/08/24 01:22:12;;;;;;;2.62;1.10;;;;;;;19.02;62.50;100483.31;5277645;27;20060;-80
2021/08/24 01:25:08;;;;;;;4.10;1.30;;;;;;;18.78;62.86;100478.03;5277629;27;20435;-82
2021/08/24 01:27:48;;;;;;;6.30;1.52;;;;;;;18.86;62.18;100477.75;5277825;27;20112;-80
2021/08/24 01:30:56;;;;;;;5.12;1.55;;;;;;;18.98;61.80;100476.38;5277716;27;20053;-82
2021/08/24 01:33:51;;;;;;;5.03;1.90;;;;;;;18.83;62.16;100484.03;5277344;27;20064;-80
2021/08/24 01:36:27;;;;;;;3.58;1.42;;;;;;;19.01;61.34;100481.59;5277659;27;20415;-82
2021/08/24 01:39:05;;;;;;;2.30;1.10;;;;;;;18.93;61.50;100484.53;5277561;27;20427;-80
2021/08/24 01:41:58;;;;;;;2.33;1.05;;;;;;;18.72;62.33;100486.22;5277784;27;20053;-81
2021/08/24 01:44:33;;;;;;;3.33;1.10;;;;;;;18.59;62.67;100483.16;5277570;27;20489;-81
2021/08/24 01:53:26;;;;;;;3.72;1.02;;;;;;;18.77;61.54;100481.63;5317710;27;20067;-80
2021/08/24 01:56:07;;;;;;;2.28;1.10;;;;;;;18.36;62.86;100480.47;5299440;27;20241;-81
2021/08/24 01:59:17;;;;;;;1.48;0.57;;;;;;;18.61;62.31;100472.44;5319132;27;20101;-82
2021/08/24 02:01:56;;;;;;;2.80;0.70;;;;;;;18.68;62.13;100471.28;5299193;27;20069;-80
2021/08/24 02:04:30;;;;;;;2.85;1.40;;;;;;;18.72;62.36;100480.03;5319179;27;20106;-81
2021/08/24 02:07:09;;;;;;;2.90;1.02;;;;;;;18.35;63.51;100489.34;5299053;27;20117;-80
2021/08/24 02:09:45;;;;;;;1.75;0.95;;;;;;;18.25;63.86;100480.84;5298338;27;20079;-81
2021/08/24 02:12:24;;;;;;;4.20;1.15;;;;;;;18.39;63.57;100486.53;5319143;27;20467;-80
2021/08/24 02:14:51;;;;;;;;;;;;;;;18.51;nan;100485.22;5319143;27;20117;-80
2021/08/24 02:17:48;;;;;;;1.90;1.08;;;;;;;18.47;63.51;100480.06;5298266;27;34086;-81
2021/08/24 02:20:23;;;;;;;2.47;1.23;;;;;;;18.44;63.24;100480.19;5299413;27;20069;-80
2021/08/24 02:22:55;;;;;;;1.55;0.80;;;;;;;18.40;63.47;100471.44;5300075;27;20132;-80
2021/08/24 02:25:28;;;;;;;2.12;1.00;;;;;;;18.07;64.56;100482.38;5300646;27;20053;-82
2021/08/24 02:28:26;;;;;;;2.25;0.73;;;;;;;17.84;65.42;100483.19;5320027;27;20597;-80
2021/08/24 02:31:00;;;;;;;3.75;0.93;;;;;;;18.02;64.47;100475.50;5300969;27;20458;-80
2021/08/24 02:33:42;;;;;;;1.90;0.60;;;;;;;18.07;63.82;100476.22;5300354;27;20052;-81
2021/08/24 02:36:11;;;;;;;2.37;0.80;;;;;;;18.07;63.96;100469.09;5299976;27;20064;-81
2021/08/24 02:38:45;;;;;;;2.67;0.98;;;;;;;18.10;63.63;100470.78;5300127;27;20061;-80
2021/08/24 02:41:21;;;;;;;2.75;1.02;;;;;;;18.14;63.67;100473.25;5299911;27;20092;-80
2021/08/24 02:44:09;;;;;;;3.58;1.20;;;;;;;18.34;63.34;100480.53;5299873;27;20358;-81
2021/08/24 02:46:40;;;;;;;3.30;1.20;;;;;;;18.23;63.92;100469.41;5300202;27;20100;-81
2021/08/24 02:49:37;;;;;;;3.75;1.40;;;;;;;17.95;65.28;100477.50;5300087;27;20112;-81
2021/08/24 02:52:08;;;;;;;2.05;1.20;;;;;;;18.42;63.81;100471.41;5282213;27;20548;-80
2021/08/24 02:54:44;;;;;;;3.47;2.00;;;;;;;18.28;64.20;100470.09;5299762;27;20052;-80
2021/08/24 02:57:11;;;;;;;2.37;1.50;;;;;;;18.21;64.62;100465.94;5300116;27;20324;-80
2021/08/24 02:59:39;;;;;;;4.03;1.50;;;;;;;18.31;64.40;100474.44;5298825;26;20079;-83
2021/08/24 03:02:35;;;;;;;1.60;1.20;;;;;;;18.19;64.48;100472.25;5301326;27;20351;-83
2021/08/24 03:05:02;;;;;;;2.37;1.30;;;;;;;18.29;64.04;100471.84;5300354;27;20056;-80
2021/08/24 03:07:31;;;;;;;1.70;1.00;;;;;;;18.37;63.65;100466.25;5299921;27;20072;-82
2021/08/24 03:10:02;;;;;;;1.48;1.00;;;;;;;18.34;63.52;100467.22;5299787;27;20065;-81
2021/08/24 03:12:48;;;;;;;4.50;1.33;;;;;;;18.38;63.44;100468.88;5319761;27;20056;-81
2021/08/24 03:15:24;;;;;;;3.12;1.75;;;;;;;18.23;63.97;100480.03;5299587;27;20060;-80
2021/08/24 03:18:36;;;;;;;1.60;0.90;;;;;;;18.24;64.20;100467.63;5300581;27;20144;-82
2021/08/24 03:21:09;;;;;;;1.10;1.00;;;;;;;18.37;63.54;100469.75;5295877;27;20057;-81
2021/08/24 03:23:38;;;;;;;2.53;1.42;;;;;;;18.36;63.45;100473.38;5300472;27;20497;-80
2021/08/24 03:26:06;;;;;;;3.05;1.00;;;;;;;18.44;63.23;100472.19;5299658;27;20080;-80
2021/08/24 03:28:33;;;;;;;4.22;1.70;;;;;;;18.38;63.17;100466.19;5287127;26;20096;-80
2021/08/24 03:31:00;;;;;;;4.87;1.40;;;;;;;18.23;63.49;100465.88;5256143;27;20080;-80
2021/08/24 03:33:27;;;;;;;4.85;2.05;;;;;;;18.32;63.15;100454.91;5274056;27;20159;-80
2021/08/24 03:35:54;;;;;;;6.00;1.70;;;;;;;18.43;62.59;100462.50;5256360;27;20420;-80
2021/08/24 03:38:21;;;;;;;5.90;1.27;;;;;;;18.41;62.77;100462.53;5256339;27;20626;-81
2021/08/24 03:40:48;;;;;;;2.55;1.55;;;;;;;18.38;62.59;100470.63;5256249;27;20069;-80
2021/08/24 03:43:15;;;;;;;2.65;2.00;;;;;;;18.40;62.25;100466.12;5256268;27;20065;-80
2021/08/24 03:45:42;;;;;;;3.50;1.83;;;;;;;18.37;61.95;100475.09;5256273;27;20567;-82
2021/08/24 03:48:09;;;;;;;2.92;2.28;;;;;;;18.02;62.69;100478.16;5256524;27;20075;-81
2021/08/24 03:50:50;;;;;;;3.55;2.08;;;;;;;18.21;62.11;100484.56;5256744;27;20411;-81
2021/08/24 03:53:17;;;;;;;2.83;1.75;;;;;;;18.25;61.97;100491.50;5256455;27;20129;-80
2021/08/24 03:55:44;;;;;;;4.12;1.75;;;;;;;18.36;61.48;100486.66;5256049;27;20125;-80
2021/08/24 03:58:12;;;;;;;2.60;1.65;;;;;;;18.28;61.57;100509.13;5256389;27;20370;-82
2021/08/24 04:00:47;;;;;;;5.97;1.70;;;;;;;18.30;61.86;100509.97;5255673;27;20069;-81
2021/08/24 04:03:14;;;;;;;2.60;1.45;;;;;;;18.19;62.51;100513.00;5256966;27;20061;-81
2021/08/24 04:05:42;;;;;;;6.18;1.37;;;;;;;18.31;62.13;100511.69;5256398;27;20053;-80
2021/08/24 04:08:09;;;;;;;4.82;2.15;;;;;;;18.16;62.67;100521.09;5255973;27;20062;-80
2021/08/24 04:10:36;;;;;;;6.72;2.75;;;;;;;17.98;63.61;100514.63;5255870;27;20431;-80
2021/08/24 04:13:04;;;;;;;3.92;2.22;;;;;;;18.06;63.44;100511.66;5256723;27;20064;-80
2021/08/24 04:15:31;;;;;;;6.25;2.17;;;;;;;18.15;63.63;100514.03;5255994;27;20079;-80
2021/08/24 04:17:58;;;;;;;6.72;2.67;;;;;;;18.22;63.40;100514.69;5256063;27;20119;-83
2021/08/24 04:20:25;;;;;;;5.28;2.35;;;;;;;17.84;65.84;100517.72;5255758;27;20442;-80
2021/08/24 04:22:52;;;;;;;3.00;1.70;;;;;;;18.14;64.59;100520.25;5256186;27;20072;-81
2021/08/24 04:25:19;;;;;;;2.90;1.90;;;;;;;18.57;63.60;100519.59;5256404;27;20528;-81
2021/08/24 04:30:24;;;;;;;4.60;1.92;;;;;;;19.10;62.87;100518.50;5295444;27;20071;-79
2021/08/24 04:32:51;;;;;;;2.83;1.90;;;;;;;19.38;61.39;100510.28;5297893;27;20450;-80
2021/08/24 04:35:19;;;;;;;7.62;1.95;;;;;;;19.66;60.42;100512.72;5277756;27;20057;-82
2021/08/24 04:37:46;;;;;;;3.33;1.42;;;;;;;19.56;60.67;100515.78;5277648;27;20059;-81
2021/08/24 04:40:13;;;;;;;8.77;3.08;;;;;;;19.32;62.69;100518.50;5277502;27;20071;-80
2021/08/24 04:42:40;;;;;;;8.40;2.65;;;;;;;18.94;63.54;100517.34;5277638;27;20479;-80
2021/08/24 04:45:08;;;;;;;7.93;2.67;;;;;;;18.92;63.94;100519.22;5297115;27;20061;-81
2021/08/24 04:47:35;;;;;;;10.18;2.05;;;;;;;18.95;63.72;100522.63;5297378;27;20088;-80
2021/08/24 04:50:03;;;;;;;5.55;2.28;;;;;;;19.19;62.78;100523.47;5277612;27;20116;-81
2021/08/24 04:52:30;;;;;;;8.38;1.98;;;;;;;19.01;63.98;100530.38;5277467;27;20132;-81
2021/08/24 04:55:00;;;;;;;6.03;2.17;;;;;;;19.12;63.87;100527.31;5277317;27;20105;-81
2021/08/24 04:57:27;;;;;;;6.00;2.00;;;;;;;19.09;63.94;100522.13;5277407;27;20100;-80
2021/08/24 04:59:53;;;;;;;6.35;1.65;;;;;;;18.95;64.52;100525.31;5277495;27;20717;-80
2021/08/24 05:02:21;;;;;;;13.10;2.47;;;;;;;18.91;64.91;100528.13;5277746;27;20567;-80
2021/08/24 05:04:51;;;;;;;3.67;1.95;;;;;;;18.73;65.96;100527.00;5277668;27;20676;-80
2021/08/24 05:07:18;;;;;;;8.20;2.45;;;;;;;18.99;65.23;100526.91;5277432;27;20434;-80
2021/08/24 05:09:45;;;;;;;5.72;2.40;;;;;;;19.02;64.59;100523.25;5277431;27;20452;-81
2021/08/24 05:12:12;;;;;;;3.95;2.33;;;;;;;19.06;65.88;100527.56;5277534;27;20480;-81
2021/08/24 05:14:54;;;;;;;11.85;2.20;;;;;;;18.91;66.31;100528.13;5295838;27;20053;-81
2021/08/24 05:17:22;;;;;;;6.30;2.20;;;;;;;19.11;65.76;100522.91;5274875;27;20092;-84
2021/08/24 05:20:12;;;;;;;9.77;3.97;;;;;;;19.25;65.92;100525.03;5276357;27;20122;-80
2021/08/24 05:22:48;;;;;;;;;;;;;;;19.16;66.00;100538.72;5277632;27;20124;-80
2021/08/24 05:25:19;;;;;;;6.68;3.55;;;;;;;19.17;67.64;100535.97;5277259;27;20016;-79
2021/08/24 05:27:47;;;;;;;12.63;7.43;;;;;;;19.34;66.90;100527.31;5277602;27;20107;-80
2021/08/24 05:30:23;;;;;;;17.92;12.10;;;;;;;19.52;65.57;100529.25;5295709;27;20065;-80
2021/08/24 05:32:56;;;;;;;12.13;9.52;;;;;;;19.47;66.06;100530.34;5275893;27;20068;-81
2021/08/24 05:35:23;;;;;;;11.55;5.07;;;;;;;19.53;66.86;100532.78;5274740;27;20064;-81
2021/08/24 05:37:50;;;;;;;4.32;2.58;;;;;;;19.59;66.98;100537.88;5276736;27;20056;-81
2021/08/24 05:40:18;;;;;;;3.90;2.45;;;;;;;19.55;67.21;100538.03;5276555;27;20475;-80
2021/08/24 05:42:45;;;;;;;5.90;2.97;;;;;;;19.70;66.68;100540.09;5277510;27;20060;-80
2021/08/24 05:45:13;;;;;;;4.75;2.55;;;;;;;19.87;66.25;100540.28;5276818;27;20061;-80
2021/08/24 05:47:40;;;;;;;7.50;3.50;;;;;;;19.88;66.93;100549.13;5296756;27;20132;-80
2021/08/24 05:50:08;;;;;;;8.20;2.90;;;;;;;19.99;67.39;100554.91;5276124;27;20058;-80
2021/08/24 05:52:35;;;;;;;6.75;3.17;;;;;;;20.34;66.75;100544.50;5275001;27;20064;-80
2021/08/24 05:55:03;;;;;;;6.15;2.55;;;;;;;20.84;64.93;100541.41;5275550;27;20065;-80
2021/08/24 05:57:30;;;;;;;5.55;2.95;;;;;;;21.18;63.88;100550.50;5293369;27;20415;-80
2021/08/24 05:59:57;;;;;;;8.38;2.80;;;;;;;21.37;63.75;100550.53;5296153;27;20115;-80
2021/08/24 06:02:29;;;;;;;6.50;3.28;;;;;;;21.47;63.54;100563.38;5274202;27;20060;-81
2021/08/24 06:04:56;;;;;;;9.55;3.45;;;;;;;21.52;63.56;100560.47;5274446;27;20053;-80
2021/08/24 06:07:29;;;;;;;5.53;3.08;;;;;;;21.70;63.22;100564.91;5275626;27;20100;-81
2021/08/24 06:09:57;;;;;;;9.65;3.67;;;;;;;21.76;62.60;100558.41;5296322;27;20069;-80
2021/08/24 06:12:25;;;;;;;8.65;3.53;;;;;;;22.19;61.30;100551.78;5274790;27;20080;-81
2021/08/24 06:14:52;;;;;;;10.73;3.85;;;;;;;22.30;61.19;100553.06;5276167;27;20053;-81
2021/08/24 06:17:19;;;;;;;8.80;4.05;;;;;;;22.56;61.15;100560.56;5275855;27;20077;-80
2021/08/24 06:19:46;;;;;;;9.40;3.90;;;;;;;22.72;60.77;100559.75;5275436;27;20742;-81
2021/08/24 06:22:13;;;;;;;7.65;3.60;;;;;;;23.03;60.19;100558.97;5275865;27;20061;-81
2021/08/24 06:24:40;;;;;;;25.50;6.87;;;;;;;23.33;59.28;100554.59;5274753;27;20143;-80
2021/08/24 06:27:08;;;;;;;25.48;7.40;;;;;;;23.84;58.35;100551.72;5274813;27;20083;-81
2021/08/24 06:29:35;;;;;;;28.48;7.68;;;;;;;24.30;55.56;100550.81;5276145;27;20474;-81
2021/08/24 06:32:05;;;;;;;18.35;4.93;;;;;;;24.88;53.68;100555.28;5274113;27;20088;-81
2021/08/24 06:34:35;;;;;;;4.12;2.20;;;;;;;25.67;51.95;100551.12;5275595;27;20071;-82
2021/08/24 06:37:04;;;;;;;4.15;2.05;;;;;;;26.43;48.47;100548.63;5275704;27;20145;-80
2021/08/24 06:39:31;;;;;;;3.85;1.77;;;;;;;27.49;46.63;100545.63;5293442;27;20092;-82
2021/08/24 06:41:58;;;;;;;4.03;1.50;;;;;;;28.22;44.17;100550.88;5275466;27;20140;-80
2021/08/24 06:44:24;;;;;;;1.92;1.50;;;;;;;28.52;42.30;100544.94;5275821;27;20087;-80
2021/08/24 06:46:51;;;;;;;9.40;2.03;;;;;;;28.79;42.93;100541.03;5295747;27;20067;-80
2021/08/24 06:49:19;;;;;;;3.00;1.50;;;;;;;28.41;44.25;100544.03;5276226;27;20160;-80
2021/08/24 06:51:46;;;;;;;3.08;1.58;;;;;;;28.56;41.61;100551.00;5276236;27;20095;-80
2021/08/24 06:54:13;;;;;;;2.87;1.45;;;;;;;28.83;41.19;100547.94;5276252;27;20077;-81
2021/08/24 06:56:46;;;;;;;1.58;1.10;;;;;;;29.16;40.46;100546.22;5295892;27;20428;-82
2021/08/24 06:59:13;;;;;;;3.45;1.23;;;;;;;29.46;41.01;100545.53;5276035;27;20104;-80
2021/08/24 07:01:41;;;;;;;2.25;1.50;;;;;;;29.46;40.18;100540.12;5275552;27;20454;-80
2021/08/24 07:04:08;;;;;;;3.35;1.60;;;;;;;29.29;40.58;100549.63;5296027;27;20419;-81
2021/08/24 07:06:36;;;;;;;2.85;1.10;;;;;;;29.86;39.01;100548.53;5276270;27;20069;-80
2021/08/24 07:09:14;;;;;;;2.90;1.42;;;;;;;30.05;39.35;100553.22;5277205;27;20068;-80
2021/08/24 07:11:41;;;;;;;2.30;1.33;;;;;;;29.31;38.38;100544.09;5277333;27;20060;-81
2021/08/24 07:14:08;;;;;;;3.30;1.40;;;;;;;29.56;38.86;100542.91;5276525;27;20070;-80
2021/08/24 07:16:35;;;;;;;2.72;1.20;;;;;;;29.50;39.68;100548.84;5277177;27;20470;-81
2021/08/24 07:19:02;;;;;;;3.00;1.20;;;;;;;29.37;40.69;100551.72;5277453;27;20104;-81
2021/08/24 07:21:29;;;;;;;1.30;1.05;;;;;;;28.43;41.25;100551.06;5277023;27;20079;-81
2021/08/24 07:23:56;;;;;;;2.03;1.10;;;;;;;28.30;42.14;100553.00;5276838;27;20052;-81
2021/08/24 07:26:24;;;;;;;2.25;1.20;;;;;;;27.75;41.94;100554.47;5276779;27;20060;-82
2021/08/24 07:28:51;;;;;;;5.43;1.45;;;;;;;27.46;42.89;100556.63;5276972;27;20076;-82
2021/08/24 07:31:19;;;;;;;2.65;1.20;;;;;;;27.65;42.61;100551.59;5277427;27;20060;-82
2021/08/24 07:33:49;;;;;;;2.92;1.60;;;;;;;27.63;43.15;100542.75;5277429;27;20053;-81
2021/08/24 07:36:17;;;;;;;2.17;1.37;;;;;;;27.94;43.69;100553.97;5276444;27;20049;-81
2021/08/24 07:38:44;;;;;;;2.12;1.48;;;;;;;27.81;42.64;100543.25;5294657;27;20076;-81
2021/08/24 07:41:13;;;;;;;;;;;;;;;27.49;43.84;100543.78;5278290;27;20064;-82
2021/08/24 07:43:40;;;;;;;4.45;1.55;;;;;;;28.00;42.00;100545.37;5276703;27;20589;-82
2021/08/24 07:46:07;;;;;;;2.20;1.40;;;;;;;27.58;43.13;100547.62;5277453;27;20057;-81
2021/08/24 07:48:35;;;;;;;3.90;1.45;;;;;;;27.75;42.18;100549.94;5277368;27;20065;-81
2021/08/24 07:51:36;;;;;;;2.20;1.42;;;;;;;28.29;43.08;100545.84;5276794;27;20130;-81
2021/08/24 07:54:05;;;;;;;3.10;1.80;;;;;;;28.59;40.45;100541.75;5231292;27;20080;-81
2021/08/24 07:56:32;;;;;;;3.53;1.40;;;;;;;28.57;42.04;100547.28;5294259;27;20074;-82
2021/08/24 07:58:59;;;;;;;2.85;1.90;;;;;;;28.69;41.02;100548.16;5276938;27;20081;-82
2021/08/24 08:01:28;;;;;;;1.90;1.40;;;;;;;28.36;41.37;100555.22;5293939;27;20065;-83
2021/08/24 08:03:56;;;;;;;2.55;1.67;;;;;;;27.74;41.27;100550.91;5277251;27;20107;-81
2021/08/24 08:06:23;;;;;;;1.85;1.48;;;;;;;26.86;43.15;100564.50;5276991;27;20052;-81
2021/08/24 08:08:50;;;;;;;2.22;1.73;;;;;;;27.63;42.20;100556.25;5276927;27;20081;-82
2021/08/24 08:11:17;;;;;;;2.15;1.67;;;;;;;27.72;41.45;100555.56;5276577;27;20899;-81
2021/08/24 08:13:44;;;;;;;3.37;1.80;;;;;;;28.05;41.03;100557.56;5294741;27;20085;-82
2021/08/24 08:16:14;;;;;;;2.62;1.67;;;;;;;27.40;42.12;100557.94;5276541;27;20061;-82
2021/08/24 08:18:42;;;;;;;7.47;1.52;;;;;;;28.20;41.66;100563.63;5276146;27;20073;-83
2021/08/24 08:21:11;;;;;;;2.20;1.30;;;;;;;28.46;40.76;100558.06;5277454;27;20408;-82
2021/08/24 08:23:41;;;;;;;3.12;1.77;;;;;;;29.08;39.80;100556.78;5277192;27;20049;-82
2021/08/24 08:26:16;;;;;;;2.80;1.50;;;;;;;29.11;40.31;100565.50;5276904;27;20104;-82
2021/08/24 08:28:43;;;;;;;9.30;2.10;;;;;;;29.12;39.90;100560.97;5276472;27;20069;-82
2021/08/24 08:31:15;;;;;;;2.05;1.52;;;;;;;28.90;40.48;100565.38;5276238;27;20077;-80
2021/08/24 08:33:43;;;;;;;4.45;1.65;;;;;;;28.30;40.19;100563.78;5276877;27;20124;-81
2021/08/24 08:36:12;;;;;;;;;;;;;;;27.14;41.62;100566.06;5277357;27;20411;-80
2021/08/24 08:38:39;;;;;;;3.12;1.67;;;;;;;28.00;42.18;100564.28;5277233;27;19979;-82
2021/08/24 08:42:09;;;;;;;2.53;1.55;;;;;;;28.64;40.16;100558.47;5277044;27;20121;-82
2021/08/24 08:45:26;;;;;;;;;;;;;;;;;;;;;
2021/08/24 08:48:38;;;;;;;3.95;1.67;;;;;;;29.57;39.02;100558.19;5273621;27;20052;-84
2021/08/24 08:51:22;;;;;;;6.12;1.67;;;;;;;28.06;42.67;100566.53;5272983;27;20573;-82
2021/08/24 08:54:07;;;;;;;9.98;1.80;;;;;;;28.86;41.78;100563.91;5273096;27;20123;-83
2021/08/24 08:56:46;;;;;;;3.30;1.70;;;;;;;27.88;41.10;100557.97;5273318;27;20119;-81
2021/08/24 08:59:18;;;;;;;3.47;1.52;;;;;;;28.14;40.90;100572.19;5291667;27;20139;-82
2021/08/24 09:01:57;;;;;;;4.93;1.25;;;;;;;27.74;41.25;100561.72;5299917;27;20109;-82
2021/08/24 09:04:41;;;;;;;2.30;1.35;;;;;;;27.15;43.21;100575.09;5299147;27;20075;-82
2021/08/24 09:07:24;;;;;;;2.75;1.45;;;;;;;27.88;41.91;100562.53;5298804;27;20423;-82
2021/08/24 09:10:29;;;;;;;35.25;4.95;;;;;;;28.06;41.26;100563.81;5299492;27;20061;-82
2021/08/24 09:13:05;;;;;;;12.32;2.17;;;;;;;27.60;41.41;100551.09;5284910;27;20061;-82
2021/08/24 09:15:47;;;;;;;8.75;1.67;;;;;;;28.27;41.68;100554.09;5298840;26;20054;-81
2021/08/24 09:18:23;;;;;;;2.50;0.90;;;;;;;27.78;40.85;100551.53;5299094;27;20402;-81
2021/08/24 09:21:00;;;;;;;4.50;1.35;;;;;;;28.59;39.05;100556.16;5318982;27;20491;-82
2021/08/24 09:24:20;;;;;;;0.98;0.88;;;;;;;28.10;43.07;100568.03;5298622;27;20095;-81
2021/08/24 09:27:04;;;;;;;2.12;1.00;;;;;;;28.45;40.77;100549.13;5298462;27;20453;-82
2021/08/24 09:29:36;;;;;;;3.28;1.10;;;;;;;28.72;40.64;100531.69;5298380;27;20129;-82
2021/08/24 09:32:25;;;;;;;2.72;0.93;;;;;;;29.41;38.26;100542.34;5299034;27;20063;-82
2021/08/24 09:38:16;;;;;;;3.00;1.10;;;;;;;29.46;35.86;100550.09;5317437;27;20372;-81
2021/08/24 09:40:50;;;;;;;9.05;1.62;;;;;;;29.23;36.80;100538.44;5299050;27;20393;-82
2021/08/24 09:43:29;;;;;;;2.55;0.98;;;;;;;29.05;38.88;100536.25;5298683;27;20106;-82
2021/08/24 09:46:15;;;;;;;2.25;1.00;;;;;;;29.84;38.26;100536.94;5298942;27;20065;-82
2021/08/24 09:48:47;;;;;;;;;;;;;;;29.10;37.12;100544.88;5299208;27;20064;-83
2021/08/24 09:51:33;;;;;;;1.30;0.90;;;;;;;29.54;37.37;100537.66;5299249;27;19968;-82
2021/08/24 09:54:06;;;;;;;0.98;0.88;;;;;;;29.22;37.13;100543.00;5297825;27;20048;-83
2021/08/24 09:56:39;;;;;;;2.92;1.62;;;;;;;29.20;40.03;100542.25;5298880;27;20068;-83
2021/08/24 09:59:11;;;;;;;1.75;1.27;;;;;;;29.48;37.00;100550.84;5299015;27;20115;-82
2021/08/24 10:01:49;;;;;;;1.92;1.05;;;;;;;29.19;36.35;100554.94;5298385;27;20069;-82
2021/08/24 10:04:18;;;;;;;1.15;1.05;;;;;;;28.41;38.28;100550.31;5299174;27;20433;-82
2021/08/24 10:07:00;;;;;;;1.92;1.10;;;;;;;29.01;38.26;100558.25;5298520;27;20722;-82
2021/08/24 10:09:33;;;;;;;1.00;0.90;;;;;;;29.63;36.73;100541.47;5298525;27;20078;-83
2021/08/24 10:15:36;;;;;;;2.50;1.83;;;;;;;29.72;34.93;100537.97;5287830;27;20114;-82
2021/08/24 10:18:27;;;;;;;1.17;1.02;;;;;;;28.98;36.61;100535.87;5298379;27;20075;-82
2021/08/24 10:21:31;;;;;;;5.62;0.90;;;;;;;29.30;37.03;100531.56;5282458;27;20460;-82
2021/08/24 10:24:29;;;;;;;6.37;1.20;;;;;;;28.92;36.64;100533.66;5298208;27;20438;-81
2021/08/24 10:27:05;;;;;;;4.40;1.30;;;;;;;28.33;37.54;100538.37;5280214;26;20072;-81
2021/08/24 10:29:36;;;;;;;1.20;0.88;;;;;;;27.53;38.91;100539.00;5276997;27;20098;-82
2021/08/24 10:32:07;;;;;;;1.27;0.85;;;;;;;28.41;37.53;100544.03;5277093;27;20199;-82
2021/08/24 10:35:23;;;;;;;2.00;1.12;;;;;;;28.41;37.15;100536.81;5276451;27;20415;-82
2021/08/24 10:37:50;;;;;;;3.22;0.90;;;;;;;28.36;37.48;100528.19;5257390;27;20451;-82
2021/08/24 10:40:41;;;;;;;1.80;1.17;;;;;;;28.65;37.06;100531.34;5276983;27;20143;-82
2021/08/24 10:43:23;;;;;;;3.80;1.15;;;;;;;28.17;37.51;100523.34;5278036;27;20065;-81
2021/08/24 10:45:59;;;;;;;1.33;1.00;;;;;;;28.46;37.68;100528.34;5277854;27;20079;-82
2021/08/24 10:48:30;;;;;;;3.37;1.30;;;;;;;28.16;37.82;100539.69;5278057;27;20076;-82
2021/08/24 10:51:10;;;;;;;3.35;1.20;;;;;;;28.15;37.81;100532.53;5277386;27;20065;-82
2021/08/24 10:53:48;;;;;;;1.52;1.17;;;;;;;28.19;37.63;100526.78;5277784;27;20061;-82
2021/08/24 10:56:37;;;;;;;1.23;0.87;;;;;;;27.28;39.05;100535.44;5278146;27;20057;-81
2021/08/24 10:59:19;;;;;;;1.67;1.10;;;;;;;28.12;38.21;100543.59;5277599;26;20092;-80
2021/08/24 11:01:49;;;;;;;5.45;1.58;;;;;;;28.39;38.15;100532.50;5277529;27;20403;-81
2021/08/24 11:04:42;;;;;;;16.83;2.65;;;;;;;27.39;39.46;100534.66;5273800;27;20091;-82
2021/08/24 11:07:55;;;;;;;9.00;1.85;;;;;;;26.74;40.31;100530.34;5297611;27;20102;-81
2021/08/24 11:10:41;;;;;;;4.68;1.37;;;;;;;27.14;40.37;100535.53;5276575;27;20069;-81
2021/08/24 11:13:25;;;;;;;5.87;1.92;;;;;;;27.10;40.56;100531.38;5277344;27;20085;-81
2021/08/24 11:16:31;;;;;;;1.45;1.12;;;;;;;26.36;41.26;100536.56;5276400;27;20115;-82
2021/08/24 11:19:30;;;;;;;2.03;0.82;;;;;;;27.55;39.18;100527.12;5276795;27;20067;-82
2021/08/24 11:22:42;;;;;;;1.40;1.17;;;;;;;28.37;37.03;100521.78;5252117;27;20692;-82
2021/08/24 11:25:40;;;;;;;1.70;1.10;;;;;;;28.57;36.90;100528.37;5295771;27;20069;-82
2021/08/24 11:28:55;;;;;;;1.83;1.10;;;;;;;28.97;37.15;100528.75;5277492;27;20069;-83
2021/08/24 11:31:28;;;;;;;2.22;2.03;;;;;;;28.69;36.61;100530.09;5268945;27;20065;-83
2021/08/24 11:33:57;;;;;;;3.65;1.62;;;;;;;29.36;36.07;100533.75;5276676;27;20061;-83
2021/08/24 11:36:24;;;;;;;;;;;;;;;28.71;36.55;100538.94;5277531;27;20064;-83
2021/08/24 11:39:06;;;;;;;3.25;1.27;;;;;;;28.76;38.22;100541.28;5278076;27;20018;-83
2021/08/24 11:41:37;;;;;;;4.53;1.10;;;;;;;28.10;36.84;100532.91;5277066;27;20067;-82
2021/08/24 11:44:14;;;;;;;6.78;1.35;;;;;;;28.05;36.92;100535.09;5277208;27;20060;-83
2021/08/24 11:47:01;;;;;;;2.62;0.93;;;;;;;27.79;37.28;100529.84;5277206;27;20121;-83
2021/08/24 11:49:48;;;;;;;1.20;0.65;;;;;;;28.12;38.01;100530.06;5277752;27;20123;-83
2021/08/24 11:52:59;;;;;;;2.40;0.93;;;;;;;28.57;36.65;100514.00;5276694;27;20065;-82
2021/08/24 11:55:42;;;;;;;2.90;0.80;;;;;;;29.31;37.69;100523.31;5276977;27;20445;-82
2021/08/24 11:58:42;;;;;;;;;;;;;;;;;;;;;
2021/08/24 12:01:32;;;;;;;0.73;0.40;;;;;;;29.85;32.09;100514.28;5296939;27;20100;-83
2021/08/24 12:04:11;;;;;;;1.17;0.80;;;;;;;30.06;34.80;100511.63;5277896;27;20064;-82
2021/08/24 12:06:59;;;;;;;0.95;0.60;;;;;;;30.35;32.92;100512.81;5278698;27;20083;-84
2021/08/24 12:09:35;;;;;;;2.53;0.50;;;;;;;30.76;33.36;100515.44;5277022;27;20057;-83
2021/08/24 12:12:04;;;;;;;0.45;0.45;;;;;;;31.15;30.49;100509.31;5276738;27;20865;-83
2021/08/24 12:14:58;;;;;;;0.85;0.60;;;;;;;31.44;31.68;100503.97;5277047;27;20057;-83
2021/08/24 12:17:35;;;;;;;0.62;0.45;;;;;;;30.24;32.49;100511.91;5276700;27;20441;-82
2021/08/24 12:20:38;;;;;;;0.50;0.40;;;;;;;28.51;33.17;100521.59;5275920;27;20091;-82
2021/08/24 12:23:08;;;;;;;2.45;0.40;;;;;;;28.76;33.52;100516.94;5277329;27;20095;-82
2021/08/24 12:25:41;;;;;;;0.52;0.50;;;;;;;29.23;34.56;100514.09;5277040;27;20071;-82